sensor_id;sensor_type;location;lat;lon;timestamp;pressure;altitude;pressure_sealevel;temperature;humidity
39141;BME280;24875;48.436;10.298;2022-09-24T00:01:47;96022.47;;;10.51;100.00
39141;BME280;24875;48.436;10.298;2022-09-24T00:04:15;96019.28;;;10.56;100.00
39141;BME280;24875;48.436;10.298;2022-09-24T00:06:43;96027.91;;;10.64;100.00
39141;BME280;24875;48.436;10.298;2022-09-24T00:09:12;96021.81;;;10.64;100.00
39141;BME280;24875;48.436;10.298;2022-09-24T00:11:40;96019.91;;;10.58;100.00
39141;BME280;24875;48.436;10.298;2022-09-24T00:14:08;96014.81;;;10.56;100.00
39141;BME280;24875;48.436;10.298;2022-09-24T00:16:34;96019.47;;;10.54;100.00
39141;BME280;24875;48.436;10.298;2022-09-24T00:19:02;96008.13;;;10.54;100.00
39141;BME280;24875;48.436;10.298;2022-09-24T00:21:31;96008.13;;;10.54;100.00
39141;BME280;24875;48.436;10.298;2022-09-24T00:24:00;96007.47;;;10.52;100.00
39141;BME280;24875;48.436;10.298;2022-09-24T00:26:28;96005.47;;;10.54;100.00
39141;BME280;24875;48.436;10.298;2022-09-24T00:29:14;96004.63;;;10.53;100.00
39141;BME280;24875;48.436;10.298;2022-09-24T00:31:41;96002.56;;;10.49;100.00
39141;BME280;24875;48.436;10.298;2022-09-24T00:34:08;95996.13;;;10.51;100.00
39141;BME280;24875;48.436;10.298;2022-09-24T00:36:35;95998.09;;;10.49;100.00
39141;BME280;24875;48.436;10.298;2022-09-24T00:39:02;95995.00;;;10.46;100.00
39141;BME280;24875;48.436;10.298;2022-09-24T00:41:32;95993.03;;;10.48;100.00
39141;BME280;24875;48.436;10.298;2022-09-24T00:43:59;95991.47;;;10.39;100.00
39141;BME280;24875;48.436;10.298;2022-09-24T00:46:28;96000.09;;;10.47;100.00
39141;BME280;24875;48.436;10.298;2022-09-24T00:48:57;95997.22;;;10.42;100.00
39141;BME280;24875;48.436;10.298;2022-09-24T00:51:28;95991.47;;;10.39;100.00
39141;BME280;24875;48.436;10.298;2022-09-24T00:53:58;95993.56;;;10.43;100.00
39141;BME280;24875;48.436;10.298;2022-09-24T00:56:27;95988.47;;;10.42;100.00
39141;BME280;24875;48.436;10.298;2022-09-24T00:58:59;95979.50;;;10.36;100.00
39141;BME280;24875;48.436;10.298;2022-09-24T01:01:27;95986.03;;;10.26;100.00
39141;BME280;24875;48.436;10.298;2022-09-24T01:03:56;95978.84;;;10.34;100.00
39141;BME280;24875;48.436;10.298;2022-09-24T01:06:24;95980.69;;;10.34;100.00
39141;BME280;24875;48.436;10.298;2022-09-24T01:08:51;95972.69;;;10.28;100.00
39141;BME280;24875;48.436;10.298;2022-09-24T01:11:29;95973.22;;;10.37;100.00
39141;BME280;24875;48.436;10.298;2022-09-24T01:14:35;95978.22;;;10.32;100.00
39141;BME280;24875;48.436;10.298;2022-09-24T01:17:14;95973.16;;;10.31;100.00
39141;BME280;24875;48.436;10.298;2022-09-24T01:20:07;95972.41;;;10.37;100.00
39141;BME280;24875;48.436;10.298;2022-09-24T01:22:51;95965.25;;;10.31;100.00
39141;BME280;24875;48.436;10.298;2022-09-24T01:25:30;95962.53;;;10.25;100.00
39141;BME280;24875;48.436;10.298;2022-09-24T01:28:16;95962.41;;;10.18;100.00
39141;BME280;24875;48.436;10.298;2022-09-24T01:30:54;95966.06;;;10.17;100.00
39141;BME280;24875;48.436;10.298;2022-09-24T01:33:26;95960.59;;;10.19;100.00
39141;BME280;24875;48.436;10.298;2022-09-24T01:35:56;95956.13;;;10.19;100.00
39141;BME280;24875;48.436;10.298;2022-09-24T01:38:27;95953.06;;;10.16;100.00
39141;BME280;24875;48.436;10.298;2022-09-24T01:40:57;95951.44;;;10.15;100.00
39141;BME280;24875;48.436;10.298;2022-09-24T01:43:27;95951.88;;;10.18;100.00
39141;BME280;24875;48.436;10.298;2022-09-24T01:45:59;95946.59;;;10.18;100.00
39141;BME280;24875;48.436;10.298;2022-09-24T01:48:28;95944.06;;;10.10;100.00
39141;BME280;24875;48.436;10.298;2022-09-24T01:50:59;95939.34;;;10.20;100.00
39141;BME280;24875;48.436;10.298;2022-09-24T01:53:28;95947.63;;;10.17;100.00
39141;BME280;24875;48.436;10.298;2022-09-24T01:55:59;95942.25;;;10.25;100.00
39141;BME280;24875;48.436;10.298;2022-09-24T01:58:34;95934.97;;;10.27;100.00
39141;BME280;24875;48.436;10.298;2022-09-24T02:01:06;95933.38;;;10.26;100.00
39141;BME280;24875;48.436;10.298;2022-09-24T02:03:38;95931.53;;;10.27;100.00
39141;BME280;24875;48.436;10.298;2022-09-24T02:06:11;95928.44;;;10.23;100.00
39141;BME280;24875;48.436;10.298;2022-09-24T02:08:44;95916.38;;;10.29;100.00
39141;BME280;24875;48.436;10.298;2022-09-24T02:11:12;95907.38;;;10.23;100.00
39141;BME280;24875;48.436;10.298;2022-09-24T02:13:42;95905.03;;;10.28;100.00
39141;BME280;24875;48.436;10.298;2022-09-24T02:16:13;95911.56;;;10.32;100.00
39141;BME280;24875;48.436;10.298;2022-09-24T02:18:43;95913.66;;;10.36;100.00
39141;BME280;24875;48.436;10.298;2022-09-24T02:21:14;95906.38;;;10.38;100.00
39141;BME280;24875;48.436;10.298;2022-09-24T02:23:44;95914.34;;;10.45;100.00
39141;BME280;24875;48.436;10.298;2022-09-24T02:26:13;95909.38;;;10.35;100.00
39141;BME280;24875;48.436;10.298;2022-09-24T02:28:39;95911.63;;;10.38;100.00
39141;BME280;24875;48.436;10.298;2022-09-24T02:31:10;95912.81;;;10.50;100.00
39141;BME280;24875;48.436;10.298;2022-09-24T02:33:42;95914.69;;;10.56;100.00
39141;BME280;24875;48.436;10.298;2022-09-24T02:36:27;95918.28;;;10.49;100.00
39141;BME280;24875;48.436;10.298;2022-09-24T02:38:54;95918.81;;;10.44;100.00
39141;BME280;24875;48.436;10.298;2022-09-24T02:41:21;95915.00;;;10.47;100.00
39141;BME280;24875;48.436;10.298;2022-09-24T02:43:50;95917.34;;;10.42;100.00
39141;BME280;24875;48.436;10.298;2022-09-24T02:46:16;95933.16;;;10.42;100.00
39141;BME280;24875;48.436;10.298;2022-09-24T02:48:44;95916.63;;;10.48;100.00
39141;BME280;24875;48.436;10.298;2022-09-24T02:51:11;95915.72;;;10.41;100.00
39141;BME280;24875;48.436;10.298;2022-09-24T02:53:37;95921.38;;;10.38;100.00
39141;BME280;24875;48.436;10.298;2022-09-24T02:56:05;95924.47;;;10.41;100.00
39141;BME280;24875;48.436;10.298;2022-09-24T02:58:32;95914.09;;;10.40;100.00
39141;BME280;24875;48.436;10.298;2022-09-24T03:01:02;95916.75;;;10.40;100.00
39141;BME280;24875;48.436;10.298;2022-09-24T03:03:28;95902.19;;;10.44;100.00
39141;BME280;24875;48.436;10.298;2022-09-24T03:05:56;95904.06;;;10.50;100.00
39141;BME280;24875;48.436;10.298;2022-09-24T03:08:23;95898.00;;;10.49;100.00
39141;BME280;24875;48.436;10.298;2022-09-24T03:10:50;95885.03;;;10.48;100.00
39141;BME280;24875;48.436;10.298;2022-09-24T03:13:17;95901.28;;;10.51;100.00
39141;BME280;24875;48.436;10.298;2022-09-24T03:15:44;95904.34;;;10.55;100.00
39141;BME280;24875;48.436;10.298;2022-09-24T03:18:10;95915.91;;;10.54;100.00
39141;BME280;24875;48.436;10.298;2022-09-24T03:20:37;95919.97;;;10.56;100.00
39141;BME280;24875;48.436;10.298;2022-09-24T03:23:05;95918.06;;;10.65;100.00
39141;BME280;24875;48.436;10.298;2022-09-24T03:25:31;95923.69;;;10.62;100.00
39141;BME280;24875;48.436;10.298;2022-09-24T03:27:57;95925.34;;;10.63;100.00
39141;BME280;24875;48.436;10.298;2022-09-24T03:30:24;95913.78;;;10.64;100.00
39141;BME280;24875;48.436;10.298;2022-09-24T03:33:08;95897.78;;;10.65;100.00
39141;BME280;24875;48.436;10.298;2022-09-24T03:35:34;95891.69;;;10.65;100.00
39141;BME280;24875;48.436;10.298;2022-09-24T03:38:01;95888.88;;;10.66;100.00
39141;BME280;24875;48.436;10.298;2022-09-24T03:40:28;95881.31;;;10.78;100.00
39141;BME280;24875;48.436;10.298;2022-09-24T03:42:55;95877.78;;;10.71;100.00
39141;BME280;24875;48.436;10.298;2022-09-24T03:45:21;95877.41;;;10.74;100.00
39141;BME280;24875;48.436;10.298;2022-09-24T03:47:48;95871.16;;;10.75;100.00
39141;BME280;24875;48.436;10.298;2022-09-24T03:50:14;95876.69;;;10.80;100.00
39141;BME280;24875;48.436;10.298;2022-09-24T03:52:41;95884.94;;;10.77;100.00
39141;BME280;24875;48.436;10.298;2022-09-24T03:55:08;95882.94;;;10.79;100.00
39141;BME280;24875;48.436;10.298;2022-09-24T03:57:36;95882.81;;;10.87;100.00
39141;BME280;24875;48.436;10.298;2022-09-24T04:00:03;95882.19;;;10.85;100.00
39141;BME280;24875;48.436;10.298;2022-09-24T04:02:29;95875.91;;;10.86;100.00
39141;BME280;24875;48.436;10.298;2022-09-24T04:04:56;95882.81;;;10.87;100.00
39141;BME280;24875;48.436;10.298;2022-09-24T04:07:23;95879.19;;;10.88;100.00
39141;BME280;24875;48.436;10.298;2022-09-24T04:09:49;95876.09;;;10.84;100.00
39141;BME280;24875;48.436;10.298;2022-09-24T04:12:16;95860.72;;;10.88;100.00
39141;BME280;24875;48.436;10.298;2022-09-24T04:14:43;95866.66;;;10.90;100.00
39141;BME280;24875;48.436;10.298;2022-09-24T04:17:10;95866.00;;;10.88;100.00
39141;BME280;24875;48.436;10.298;2022-09-24T04:19:36;95872.91;;;10.89;100.00
39141;BME280;24875;48.436;10.298;2022-09-24T04:22:03;95876.59;;;10.94;100.00
39141;BME280;24875;48.436;10.298;2022-09-24T04:24:30;95869.34;;;10.96;100.00
39141;BME280;24875;48.436;10.298;2022-09-24T04:26:57;95863.03;;;10.97;100.00
39141;BME280;24875;48.436;10.298;2022-09-24T04:29:23;95867.69;;;10.95;100.00
39141;BME280;24875;48.436;10.298;2022-09-24T04:31:51;95875.53;;;11.09;100.00
39141;BME280;24875;48.436;10.298;2022-09-24T04:34:17;95864.31;;;11.01;100.00
39141;BME280;24875;48.436;10.298;2022-09-24T04:36:45;95857.84;;;11.03;100.00
39141;BME280;24875;48.436;10.298;2022-09-24T04:39:11;95847.47;;;11.02;100.00
39141;BME280;24875;48.436;10.298;2022-09-24T04:41:38;95850.75;;;11.04;100.00
39141;BME280;24875;48.436;10.298;2022-09-24T04:44:05;95861.69;;;11.01;100.00
39141;BME280;24875;48.436;10.298;2022-09-24T04:46:31;95869.03;;;11.05;100.00
39141;BME280;24875;48.436;10.298;2022-09-24T04:48:59;95859.34;;;11.12;100.00
39141;BME280;24875;48.436;10.298;2022-09-24T04:51:26;95863.00;;;11.11;100.00
39141;BME280;24875;48.436;10.298;2022-09-24T04:53:52;95856.69;;;11.12;100.00
39141;BME280;24875;48.436;10.298;2022-09-24T04:56:19;95848.19;;;11.10;100.00
39141;BME280;24875;48.436;10.298;2022-09-24T04:58:49;95843.75;;;11.17;100.00
39141;BME280;24875;48.436;10.298;2022-09-24T05:01:15;95836.63;;;11.11;100.00
39141;BME280;24875;48.436;10.298;2022-09-24T05:03:43;95832.84;;;11.20;100.00
39141;BME280;24875;48.436;10.298;2022-09-24T05:06:11;95829.81;;;11.23;100.00
39141;BME280;24875;48.436;10.298;2022-09-24T05:08:38;95835.84;;;11.17;100.00
39141;BME280;24875;48.436;10.298;2022-09-24T05:11:04;95843.59;;;11.19;100.00
39141;BME280;24875;48.436;10.298;2022-09-24T05:13:31;95838.50;;;11.17;100.00
39141;BME280;24875;48.436;10.298;2022-09-24T05:15:59;95848.53;;;11.28;100.00
39141;BME280;24875;48.436;10.298;2022-09-24T05:18:26;95843.22;;;11.22;100.00
39141;BME280;24875;48.436;10.298;2022-09-24T05:20:52;95844.00;;;11.22;100.00
39141;BME280;24875;48.436;10.298;2022-09-24T05:23:20;95838.97;;;11.27;100.00
39141;BME280;24875;48.436;10.298;2022-09-24T05:25:47;95848.03;;;11.18;100.00
39141;BME280;24875;48.436;10.298;2022-09-24T05:28:31;95849.94;;;11.24;100.00
39141;BME280;24875;48.436;10.298;2022-09-24T05:30:58;95846.69;;;11.29;100.00
39141;BME280;24875;48.436;10.298;2022-09-24T05:33:24;95846.53;;;11.30;100.00
39141;BME280;24875;48.436;10.298;2022-09-24T05:35:52;95845.75;;;11.36;100.00
39141;BME280;24875;48.436;10.298;2022-09-24T05:38:20;95840.47;;;11.36;100.00
39141;BME280;24875;48.436;10.298;2022-09-24T05:40:47;95846.19;;;11.40;100.00
39141;BME280;24875;48.436;10.298;2022-09-24T05:43:14;95833.06;;;11.46;100.00
39141;BME280;24875;48.436;10.298;2022-09-24T05:45:43;95832.06;;;11.47;100.00
39141;BME280;24875;48.436;10.298;2022-09-24T05:48:09;95840.72;;;11.41;100.00
39141;BME280;24875;48.436;10.298;2022-09-24T05:50:36;95843.59;;;11.46;100.00
39141;BME280;24875;48.436;10.298;2022-09-24T05:53:04;95842.88;;;11.52;100.00
39141;BME280;24875;48.436;10.298;2022-09-24T05:55:32;95852.41;;;11.53;100.00
39141;BME280;24875;48.436;10.298;2022-09-24T05:58:03;95859.97;;;11.56;100.00
39141;BME280;24875;48.436;10.298;2022-09-24T06:00:30;95853.69;;;11.57;100.00
39141;BME280;24875;48.436;10.298;2022-09-24T06:03:01;95854.13;;;11.67;100.00
39141;BME280;24875;48.436;10.298;2022-09-24T06:05:28;95858.16;;;11.63;100.00
39141;BME280;24875;48.436;10.298;2022-09-24T06:07:54;95860.81;;;11.63;100.00
39141;BME280;24875;48.436;10.298;2022-09-24T06:10:21;95866.28;;;11.61;100.00
39141;BME280;24875;48.436;10.298;2022-09-24T06:12:52;95860.31;;;11.80;100.00
39141;BME280;24875;48.436;10.298;2022-09-24T06:15:19;95865.16;;;11.77;100.00
39141;BME280;24875;48.436;10.298;2022-09-24T06:17:46;95864.97;;;11.78;100.00
39141;BME280;24875;48.436;10.298;2022-09-24T06:20:12;95869.06;;;11.81;100.00
39141;BME280;24875;48.436;10.298;2022-09-24T06:22:39;95866.03;;;11.84;100.00
39141;BME280;24875;48.436;10.298;2022-09-24T06:25:07;95864.25;;;11.91;100.00
39141;BME280;24875;48.436;10.298;2022-09-24T06:27:34;95863.22;;;11.85;100.00
39141;BME280;24875;48.436;10.298;2022-09-24T06:30:02;95871.00;;;12.00;100.00
39141;BME280;24875;48.436;10.298;2022-09-24T06:32:29;95875.47;;;11.99;100.00
39141;BME280;24875;48.436;10.298;2022-09-24T06:34:56;95879.16;;;12.05;100.00
39141;BME280;24875;48.436;10.298;2022-09-24T06:37:22;95888.31;;;12.09;100.00
39141;BME280;24875;48.436;10.298;2022-09-24T06:39:49;95880.50;;;12.28;100.00
39141;BME280;24875;48.436;10.298;2022-09-24T06:42:15;95888.44;;;12.28;100.00
39141;BME280;24875;48.436;10.298;2022-09-24T06:44:42;95887.47;;;12.42;100.00
39141;BME280;24875;48.436;10.298;2022-09-24T06:47:09;95885.09;;;12.53;100.00
39141;BME280;24875;48.436;10.298;2022-09-24T06:49:36;95882.66;;;12.52;100.00
39141;BME280;24875;48.436;10.298;2022-09-24T06:52:03;95886.94;;;12.53;100.00
39141;BME280;24875;48.436;10.298;2022-09-24T06:54:30;95886.72;;;12.54;100.00
39141;BME280;24875;48.436;10.298;2022-09-24T06:56:56;95895.31;;;12.63;100.00
39141;BME280;24875;48.436;10.298;2022-09-24T06:59:22;95901.00;;;12.66;100.00
39141;BME280;24875;48.436;10.298;2022-09-24T07:01:49;95896.53;;;12.60;100.00
39141;BME280;24875;48.436;10.298;2022-09-24T07:04:17;95891.25;;;12.67;100.00
39141;BME280;24875;48.436;10.298;2022-09-24T07:06:43;95896.31;;;12.62;100.00
39141;BME280;24875;48.436;10.298;2022-09-24T07:09:30;95890.66;;;12.71;100.00
39141;BME280;24875;48.436;10.298;2022-09-24T07:11:57;95895.16;;;12.77;100.00
39141;BME280;24875;48.436;10.298;2022-09-24T07:14:25;95889.88;;;12.77;100.00
39141;BME280;24875;48.436;10.298;2022-09-24T07:16:52;95896.66;;;12.86;100.00
39141;BME280;24875;48.436;10.298;2022-09-24T07:19:19;95898.69;;;12.97;100.00
39141;BME280;24875;48.436;10.298;2022-09-24T07:21:46;95900.31;;;12.91;100.00
39141;BME280;24875;48.436;10.298;2022-09-24T07:24:13;95900.09;;;12.93;100.00
39141;BME280;24875;48.436;10.298;2022-09-24T07:26:39;95904.38;;;12.94;100.00
39141;BME280;24875;48.436;10.298;2022-09-24T07:29:06;95904.59;;;12.92;100.00
39141;BME280;24875;48.436;10.298;2022-09-24T07:31:32;95907.25;;;12.92;100.00
39141;BME280;24875;48.436;10.298;2022-09-24T07:34:00;95917.03;;;12.98;100.00
39141;BME280;24875;48.436;10.298;2022-09-24T07:36:28;95911.75;;;13.05;100.00
39141;BME280;24875;48.436;10.298;2022-09-24T07:38:55;95913.16;;;13.01;100.00
39141;BME280;24875;48.436;10.298;2022-09-24T07:41:21;95916.19;;;12.98;100.00
39141;BME280;24875;48.436;10.298;2022-09-24T07:43:48;95915.81;;;13.01;100.00
39141;BME280;24875;48.436;10.298;2022-09-24T07:46:14;95914.19;;;13.00;100.00
39141;BME280;24875;48.436;10.298;2022-09-24T07:48:40;95920.06;;;13.02;100.00
39141;BME280;24875;48.436;10.298;2022-09-24T07:51:08;95918.84;;;13.04;100.00
39141;BME280;24875;48.436;10.298;2022-09-24T07:53:36;95926.22;;;13.09;100.00
39141;BME280;24875;48.436;10.298;2022-09-24T07:56:03;95927.19;;;13.01;100.00
39141;BME280;24875;48.436;10.298;2022-09-24T07:58:30;95930.06;;;13.06;100.00
39141;BME280;24875;48.436;10.298;2022-09-24T08:00:57;95926.41;;;13.01;100.00
39141;BME280;24875;48.436;10.298;2022-09-24T08:03:24;95924.97;;;13.05;100.00
39141;BME280;24875;48.436;10.298;2022-09-24T08:05:51;95929.22;;;13.06;100.00
39141;BME280;24875;48.436;10.298;2022-09-24T08:08:21;95930.06;;;13.06;100.00
39141;BME280;24875;48.436;10.298;2022-09-24T08:10:49;95928.03;;;13.15;100.00
39141;BME280;24875;48.436;10.298;2022-09-24T08:13:16;95937.38;;;13.11;100.00
39141;BME280;24875;48.436;10.298;2022-09-24T08:15:42;95942.09;;;13.09;100.00
39141;BME280;24875;48.436;10.298;2022-09-24T08:18:09;95938.63;;;13.15;100.00
39141;BME280;24875;48.436;10.298;2022-09-24T08:20:36;95941.91;;;13.17;100.00
39141;BME280;24875;48.436;10.298;2022-09-24T08:23:05;95940.88;;;13.18;100.00
39141;BME280;24875;48.436;10.298;2022-09-24T08:25:32;95948.81;;;13.18;100.00
39141;BME280;24875;48.436;10.298;2022-09-24T08:28:01;95950.84;;;13.16;100.00
39141;BME280;24875;48.436;10.298;2022-09-24T08:30:28;95950.84;;;13.16;100.00
39141;BME280;24875;48.436;10.298;2022-09-24T08:32:56;95951.69;;;13.29;100.00
39141;BME280;24875;48.436;10.298;2022-09-24T08:35:22;95948.44;;;13.27;100.00
39141;BME280;24875;48.436;10.298;2022-09-24T08:37:49;95951.91;;;13.28;100.00
39141;BME280;24875;48.436;10.298;2022-09-24T08:40:21;95951.72;;;13.36;100.00
39141;BME280;24875;48.436;10.298;2022-09-24T08:42:52;95957.44;;;13.39;100.00
39141;BME280;24875;48.436;10.298;2022-09-24T08:45:22;95960.47;;;13.36;100.00
39141;BME280;24875;48.436;10.298;2022-09-24T08:48:10;95956.38;;;13.40;100.00
39141;BME280;24875;48.436;10.298;2022-09-24T08:50:43;95955.81;;;13.44;100.00
39141;BME280;24875;48.436;10.298;2022-09-24T08:53:16;95950.94;;;13.54;100.00
39141;BME280;24875;48.436;10.298;2022-09-24T08:55:46;95955.41;;;13.54;100.00
39141;BME280;24875;48.436;10.298;2022-09-24T08:58:25;95953.97;;;13.64;100.00
39141;BME280;24875;48.436;10.298;2022-09-24T09:00:58;95951.34;;;13.71;100.00
39141;BME280;24875;48.436;10.298;2022-09-24T09:03:34;95967.63;;;13.74;100.00
39141;BME280;24875;48.436;10.298;2022-09-24T09:06:04;95957.47;;;13.84;100.00
39141;BME280;24875;48.436;10.298;2022-09-24T09:08:42;95963.38;;;13.93;100.00
39141;BME280;24875;48.436;10.298;2022-09-24T09:11:15;95962.34;;;14.00;100.00
39141;BME280;24875;48.436;10.298;2022-09-24T09:13:50;95962.34;;;14.00;100.00
39141;BME280;24875;48.436;10.298;2022-09-24T09:16:24;95951.59;;;14.08;100.00
39141;BME280;24875;48.436;10.298;2022-09-24T09:18:54;95952.59;;;14.20;100.00
39141;BME280;24875;48.436;10.298;2022-09-24T09:21:27;95961.16;;;14.22;100.00
39141;BME280;24875;48.436;10.298;2022-09-24T09:23:58;95960.31;;;14.28;100.00
39141;BME280;24875;48.436;10.298;2022-09-24T09:26:26;95962.38;;;14.26;100.00
39141;BME280;24875;48.436;10.298;2022-09-24T09:28:57;95956.44;;;14.30;100.00
39141;BME280;24875;48.436;10.298;2022-09-24T09:31:32;95955.19;;;14.46;100.00
39141;BME280;24875;48.436;10.298;2022-09-24T09:34:29;95956.22;;;14.51;100.00
39141;BME280;24875;48.436;10.298;2022-09-24T09:37:08;95956.22;;;14.45;100.00
39141;BME280;24875;48.436;10.298;2022-09-24T09:39:44;95959.91;;;14.37;100.00
39141;BME280;24875;48.436;10.298;2022-09-24T09:42:28;95961.13;;;14.41;100.00
39141;BME280;24875;48.436;10.298;2022-09-24T09:44:59;95953.97;;;14.42;100.00
39141;BME280;24875;48.436;10.298;2022-09-24T09:47:36;95954.59;;;14.44;100.00
39141;BME280;24875;48.436;10.298;2022-09-24T09:50:12;95956.03;;;14.40;100.00
39141;BME280;24875;48.436;10.298;2022-09-24T09:52:43;95955.81;;;14.41;100.00
39141;BME280;24875;48.436;10.298;2022-09-24T09:55:20;95953.75;;;14.63;100.00
39141;BME280;24875;48.436;10.298;2022-09-24T09:57:47;95953.34;;;14.53;100.00
39141;BME280;24875;48.436;10.298;2022-09-24T10:00:26;95962.66;;;14.74;100.00
39141;BME280;24875;48.436;10.298;2022-09-24T10:02:59;95957.94;;;14.76;100.00
39141;BME280;24875;48.436;10.298;2022-09-24T10:05:28;95959.00;;;14.75;100.00
39141;BME280;24875;48.436;10.298;2022-09-24T10:07:55;95958.19;;;14.68;100.00
39141;BME280;24875;48.436;10.298;2022-09-24T10:10:24;95952.88;;;14.75;100.00
39141;BME280;24875;48.436;10.298;2022-09-24T10:12:52;95963.50;;;14.62;100.00
39141;BME280;24875;48.436;10.298;2022-09-24T10:15:21;95959.75;;;14.89;100.00
39141;BME280;24875;48.436;10.298;2022-09-24T10:17:52;95960.97;;;14.93;100.00
39141;BME280;24875;48.436;10.298;2022-09-24T10:20:23;95956.69;;;14.85;100.00
39141;BME280;24875;48.436;10.298;2022-09-24T10:22:54;95961.38;;;14.90;100.00
39141;BME280;24875;48.436;10.298;2022-09-24T10:25:24;95957.72;;;14.91;100.00
39141;BME280;24875;48.436;10.298;2022-09-24T10:27:53;95952.63;;;14.89;100.00
39141;BME280;24875;48.436;10.298;2022-09-24T10:30:48;95944.81;;;15.01;100.00
39141;BME280;24875;48.436;10.298;2022-09-24T10:33:16;95949.56;;;14.86;100.00
39141;BME280;24875;48.436;10.298;2022-09-24T10:35:45;95949.56;;;14.86;100.00
39141;BME280;24875;48.436;10.298;2022-09-24T10:38:17;95952.00;;;14.87;100.00
39141;BME280;24875;48.436;10.298;2022-09-24T10:40:44;95951.59;;;14.90;100.00
39141;BME280;24875;48.436;10.298;2022-09-24T10:43:15;95957.25;;;15.00;100.00
39141;BME280;24875;48.436;10.298;2022-09-24T10:46:02;95953.16;;;15.04;100.00
39141;BME280;24875;48.436;10.298;2022-09-24T10:48:36;95950.13;;;15.01;100.00
39141;BME280;24875;48.436;10.298;2022-09-24T10:51:19;95956.84;;;15.03;100.00
39141;BME280;24875;48.436;10.298;2022-09-24T10:53:55;95961.75;;;15.00;100.00
39141;BME280;24875;48.436;10.298;2022-09-24T10:56:28;95960.34;;;14.97;100.00
39141;BME280;24875;48.436;10.298;2022-09-24T11:02:19;95959.28;;;15.05;100.00
39141;BME280;24875;48.436;10.298;2022-09-24T11:04:54;95956.06;;;14.96;100.00
39141;BME280;24875;48.436;10.298;2022-09-24T11:07:41;95950.53;;;14.98;100.00
39141;BME280;24875;48.436;10.298;2022-09-24T11:10:20;95950.97;;;14.95;100.00
39141;BME280;24875;48.436;10.298;2022-09-24T11:13:00;95956.00;;;15.09;100.00
39141;BME280;24875;48.436;10.298;2022-09-24T11:15:44;95964.13;;;15.14;100.00
39141;BME280;24875;48.436;10.298;2022-09-24T11:18:29;95965.84;;;15.02;100.00
39141;BME280;24875;48.436;10.298;2022-09-24T11:21:11;95967.47;;;15.03;100.00
39141;BME280;24875;48.436;10.298;2022-09-24T11:23:52;95959.72;;;14.95;100.00
39141;BME280;24875;48.436;10.298;2022-09-24T11:26:26;95959.78;;;14.82;100.00
39141;BME280;24875;48.436;10.298;2022-09-24T11:29:08;95964.91;;;14.77;100.00
39141;BME280;24875;48.436;10.298;2022-09-24T11:31:40;95955.72;;;14.80;100.00
39141;BME280;24875;48.436;10.298;2022-09-24T11:34:22;95958.41;;;14.67;100.00
39141;BME280;24875;48.436;10.298;2022-09-24T11:37:03;95956.53;;;14.80;100.00
39141;BME280;24875;48.436;10.298;2022-09-24T11:39:44;95957.31;;;14.87;100.00
39141;BME280;24875;48.436;10.298;2022-09-24T11:42:21;95957.56;;;14.79;100.00
39141;BME280;24875;48.436;10.298;2022-09-24T11:45:01;95963.06;;;14.84;100.00
39141;BME280;24875;48.436;10.298;2022-09-24T11:47:47;95961.22;;;14.78;100.00
39141;BME280;24875;48.436;10.298;2022-09-24T11:50:34;95963.91;;;14.65;100.00
39141;BME280;24875;48.436;10.298;2022-09-24T11:53:09;95958.38;;;14.73;100.00
39141;BME280;24875;48.436;10.298;2022-09-24T11:55:42;95954.50;;;14.76;100.00
39141;BME280;24875;48.436;10.298;2022-09-24T11:58:16;95941.88;;;14.71;100.00
39141;BME280;24875;48.436;10.298;2022-09-24T12:00:48;95949.63;;;14.73;100.00
39141;BME280;24875;48.436;10.298;2022-09-24T12:03:19;95952.25;;;14.79;100.00
39141;BME280;24875;48.436;10.298;2022-09-24T12:05:50;95948.81;;;14.66;100.00
39141;BME280;24875;48.436;10.298;2022-09-24T12:08:21;95944.28;;;14.79;100.00
39141;BME280;24875;48.436;10.298;2022-09-24T12:10:55;95943.50;;;14.66;100.00
39141;BME280;24875;48.436;10.298;2022-09-24T12:13:27;95941.50;;;14.62;100.00
39141;BME280;24875;48.436;10.298;2022-09-24T12:15:59;95935.00;;;14.58;100.00
39141;BME280;24875;48.436;10.298;2022-09-24T12:18:31;95937.59;;;14.70;100.00
39141;BME280;24875;48.436;10.298;2022-09-24T12:21:04;95941.84;;;14.78;100.00
39141;BME280;24875;48.436;10.298;2022-09-24T12:23:36;95938.78;;;14.81;100.00
39141;BME280;24875;48.436;10.298;2022-09-24T12:26:06;95943.47;;;14.79;100.00
39141;BME280;24875;48.436;10.298;2022-09-24T12:28:39;95944.06;;;14.87;100.00
39141;BME280;24875;48.436;10.298;2022-09-24T12:31:29;95936.28;;;14.92;100.00
39141;BME280;24875;48.436;10.298;2022-09-24T12:34:21;95933.81;;;14.97;100.00
39141;BME280;24875;48.436;10.298;2022-09-24T12:36:56;95930.31;;;14.97;100.00
39141;BME280;24875;48.436;10.298;2022-09-24T12:39:25;95930.75;;;14.94;100.00
39141;BME280;24875;48.436;10.298;2022-09-24T12:41:59;95928.31;;;14.92;100.00
39141;BME280;24875;48.436;10.298;2022-09-24T12:44:34;95930.59;;;14.82;100.00
39141;BME280;24875;48.436;10.298;2022-09-24T12:47:04;95922.25;;;14.72;100.00
39141;BME280;24875;48.436;10.298;2022-09-24T12:49:39;95916.97;;;14.72;100.00
39141;BME280;24875;48.436;10.298;2022-09-24T12:52:15;95918.97;;;14.83;100.00
39141;BME280;24875;48.436;10.298;2022-09-24T12:54:43;95914.34;;;14.66;100.00
39141;BME280;24875;48.436;10.298;2022-09-24T12:57:15;95918.44;;;14.62;100.00
39141;BME280;24875;48.436;10.298;2022-09-24T12:59:48;95919.44;;;14.74;100.00
39141;BME280;24875;48.436;10.298;2022-09-24T13:02:17;95918.16;;;14.76;100.00